Time;durP1;ratioP1;P1;durP2;ratioP2;P2;SDS_P1;SDS_P2;PMS_P1;PMS_P2;Temp;Humidity;BMP_temperature;BMP_pressure;BME280_temperature;BME280_humidity;BME280_pressure;Samples;Min_cycle;Max_cycle;Signal;HPM_P1;HPM_P2
2024/01/08 00:00:52;;;;;;;14.00;7.80;;;;;;;-10.77;100.00;100501.94;106595;1260;71636;-55
2024/01/08 00:03:19;;;;;;;15.40;8.00;;;;;;;-10.81;100.00;100501.54;104860;1256;60549;-54
2024/01/08 00:05:47;;;;;;;13.60;7.90;;;;;;;-10.77;100.00;100507.29;104841;1254;60596;-55
2024/01/08 00:08:15;;;;;;;13.50;7.50;;;;;;;-10.75;100.00;100505.66;105110;1260;73746;-54
2024/01/08 00:10:42;;;;;;;16.20;8.30;;;;;;;-10.74;100.00;100501.23;104894;1259;65848;-54
2024/01/08 00:13:09;;;;;;;13.20;6.80;;;;;;;-10.77;100.00;100506.29;104905;1257;72676;-57
2024/01/08 00:15:37;;;;;;;16.60;8.10;;;;;;;-10.76;100.00;100506.15;104732;1253;60468;-54
2024/01/08 00:18:04;;;;;;;16.80;7.50;;;;;;;-10.72;100.00;100509.46;104779;1255;60346;-54
2024/01/08 00:20:32;;;;;;;18.40;7.20;;;;;;;-10.72;100.00;100504.40;105205;1255;72636;-53
2024/01/08 00:22:59;;;;;;;11.70;6.60;;;;;;;-10.68;100.00;100507.02;104633;1253;65778;-54
2024/01/08 00:25:27;;;;;;;15.40;7.70;;;;;;;-10.65;100.00;100503.34;109077;1254;72834;-54
2024/01/08 00:27:55;;;;;;;15.70;6.80;;;;;;;-10.67;100.00;100506.73;105377;1258;61718;-57
2024/01/08 00:30:22;;;;;;;14.60;7.90;;;;;;;-10.71;100.00;100503.94;104870;1257;60527;-57
2024/01/08 00:32:50;;;;;;;14.30;8.10;;;;;;;-10.78;100.00;100508.09;104942;1258;72415;-55
2024/01/08 00:35:17;;;;;;;20.70;9.40;;;;;;;-10.80;100.00;100505.63;105053;1254;65577;-55
2024/01/08 00:37:45;;;;;;;16.60;8.00;;;;;;;-10.73;100.00;100509.75;104909;1254;70458;-54
2024/01/08 00:40:12;;;;;;;13.90;8.00;;;;;;;-10.73;100.00;100511.33;105051;1255;61432;-55
2024/01/08 00:42:39;;;;;;;13.40;7.10;;;;;;;-10.76;100.00;100518.43;104949;1254;60488;-56
2024/01/08 00:45:07;;;;;;;14.10;6.80;;;;;;;-10.88;100.00;100522.88;104784;1255;72633;-56
2024/01/08 00:47:35;;;;;;;15.50;8.30;;;;;;;-10.93;100.00;100518.98;105411;1257;67124;-54
2024/01/08 00:50:03;;;;;;;15.50;8.00;;;;;;;-10.90;100.00;100522.83;105122;1260;72278;-56
2024/01/08 00:52:31;;;;;;;11.30;7.40;;;;;;;-10.93;100.00;100513.44;105255;1257;60520;-57
2024/01/08 00:55:04;;;;;;;15.80;7.80;;;;;;;-11.04;100.00;100512.73;105021;1253;60884;-55
2024/01/08 00:57:32;;;;;;;10.70;6.80;;;;;;;-11.15;100.00;100514.95;105062;1258;71888;-54
2024/01/08 01:00:00;;;;;;;13.50;8.20;;;;;;;-11.19;100.00;100507.48;104882;1257;66776;-54
2024/01/08 01:02:28;;;;;;;13.40;7.50;;;;;;;-11.12;100.00;100507.98;105272;1252;71436;-54
2024/01/08 01:04:56;;;;;;;14.00;8.20;;;;;;;-11.06;100.00;100504.48;104976;1259;60923;-55
2024/01/08 01:07:25;;;;;;;17.00;9.40;;;;;;;-11.08;100.00;100504.74;105022;1257;59887;-53
2024/01/08 01:09:52;;;;;;;13.90;7.20;;;;;;;-11.12;100.00;100506.29;105128;1257;72531;-58
2024/01/08 01:12:19;;;;;;;15.20;7.00;;;;;;;-11.17;100.00;100501.68;104871;1257;69966;-56
2024/01/08 01:14:47;;;;;;;15.20;8.50;;;;;;;-11.27;100.00;100508.14;105055;1254;70178;-55
2024/01/08 01:17:14;;;;;;;16.40;9.40;;;;;;;-11.30;100.00;100508.65;104910;1257;61480;-54
2024/01/08 01:19:42;;;;;;;16.10;8.80;;;;;;;-11.32;100.00;100510.65;105273;1254;60490;-55
2024/01/08 01:22:09;;;;;;;14.60;7.30;;;;;;;-11.38;100.00;100511.88;104859;1257;74629;-54
2024/01/08 01:24:37;;;;;;;16.10;9.40;;;;;;;-11.42;100.00;100512.38;104815;1254;65677;-55
2024/01/08 01:27:04;;;;;;;15.70;8.90;;;;;;;-11.50;100.00;100513.69;104836;1258;72582;-54
2024/01/08 01:29:32;;;;;;;15.50;9.40;;;;;;;-11.52;100.00;100516.20;104943;1257;60734;-53
2024/01/08 01:31:59;;;;;;;15.90;9.00;;;;;;;-11.49;100.00;100512.92;104789;1254;60638;-55
2024/01/08 01:34:27;;;;;;;15.20;8.00;;;;;;;-11.45;100.00;100521.38;107603;1254;72472;-58
2024/01/08 01:36:54;;;;;;;17.00;9.70;;;;;;;-11.44;100.00;100515.75;104931;1257;65812;-54
2024/01/08 01:39:22;;;;;;;12.60;8.00;;;;;;;-11.44;100.00;100515.40;104908;1259;72642;-56
2024/01/08 01:41:52;;;;;;;16.10;9.20;;;;;;;-11.52;100.00;100511.73;104937;1255;61912;-54
2024/01/08 01:44:20;;;;;;;20.80;10.10;;;;;;;-11.59;100.00;100507.71;105013;1255;60470;-55
2024/01/08 01:46:48;;;;;;;15.30;8.80;;;;;;;-11.68;100.00;100505.35;105843;1254;75050;-54
2024/01/08 01:49:18;;;;;;;14.30;9.00;;;;;;;-11.74;100.00;100506.90;105146;1255;64797;-54
2024/01/08 01:51:46;;;;;;;17.00;10.50;;;;;;;-11.81;100.00;100515.23;104949;1252;71434;-55
2024/01/08 01:54:15;;;;;;;16.10;9.00;;;;;;;-11.85;100.00;100515.36;104770;1254;60630;-54
2024/01/08 01:56:51;;;;;;;10.60;7.80;;;;;;;-11.95;100.00;100514.16;104810;1257;60373;-55
2024/01/08 01:59:18;;;;;;;16.70;9.60;;;;;;;-11.97;100.00;100528.25;105261;1254;73882;-54
2024/01/08 02:01:46;;;;;;;14.00;9.50;;;;;;;-11.97;100.00;100526.15;104934;1257;64757;-56
2024/01/08 02:04:13;;;;;;;18.00;10.10;;;;;;;-11.92;100.00;100527.98;104785;1254;70324;-56
2024/01/08 02:06:41;;;;;;;13.60;10.20;;;;;;;-11.91;100.00;100526.31;105566;1254;60615;-59
2024/01/08 02:09:08;;;;;;;15.10;10.00;;;;;;;-11.99;100.00;100526.21;104908;1257;60448;-57
2024/01/08 02:11:35;;;;;;;16.60;11.10;;;;;;;-12.04;100.00;100524.61;104888;1260;72632;-59
2024/01/08 02:14:03;;;;;;;14.40;10.00;;;;;;;-12.03;100.00;100529.33;104849;1256;65759;-59
2024/01/08 02:16:30;;;;;;;15.50;9.00;;;;;;;-12.03;100.00;100528.60;109009;1254;71488;-57
2024/01/08 02:18:58;;;;;;;19.50;9.40;;;;;;;-12.05;100.00;100530.75;104973;1254;60399;-56
2024/01/08 02:21:25;;;;;;;15.70;9.90;;;;;;;-12.05;100.00;100525.73;109003;1254;58847;-57
2024/01/08 02:23:53;;;;;;;16.70;9.40;;;;;;;-12.02;100.00;100531.61;106551;1255;72658;-57
2024/01/08 02:26:20;;;;;;;15.70;9.70;;;;;;;-12.04;100.00;100533.88;104832;1254;66949;-57
2024/01/08 02:28:48;;;;;;;16.70;9.50;;;;;;;-12.08;100.00;100536.48;104788;1254;72731;-57
2024/01/08 02:31:15;;;;;;;14.60;9.90;;;;;;;-12.06;100.00;100535.53;105724;1254;62782;-57
2024/01/08 02:33:42;;;;;;;14.20;9.50;;;;;;;-12.02;100.00;100538.19;104925;1261;60469;-56
2024/01/08 02:36:10;;;;;;;16.80;10.80;;;;;;;-12.01;100.00;100538.63;104849;1255;74153;-56
2024/01/08 02:38:37;;;;;;;16.20;9.70;;;;;;;-11.95;100.00;100537.52;104920;1254;67210;-56
2024/01/08 02:41:04;;;;;;;18.10;11.00;;;;;;;-11.92;100.00;100538.70;105891;1256;74659;-58
2024/01/08 02:43:32;;;;;;;16.10;10.00;;;;;;;-11.93;100.00;100539.38;104893;1254;61642;-56
2024/01/08 02:46:00;;;;;;;19.70;10.60;;;;;;;-11.95;100.00;100537.86;105788;1257;59267;-59
2024/01/08 02:48:27;;;;;;;17.80;9.30;;;;;;;-12.02;100.00;100542.84;104845;1255;73036;-56
2024/01/08 02:50:54;;;;;;;16.60;10.20;;;;;;;-12.08;100.00;100537.15;104616;1257;65765;-56
2024/01/08 02:53:22;;;;;;;17.10;10.00;;;;;;;-12.12;100.00;100539.02;104692;1255;72749;-56
2024/01/08 02:55:49;;;;;;;19.40;10.20;;;;;;;-12.15;100.00;100538.65;104851;1257;61323;-56
2024/01/08 02:58:17;;;;;;;17.10;10.40;;;;;;;-12.15;100.00;100538.67;104772;1257;60412;-55
2024/01/08 03:00:44;;;;;;;19.60;10.90;;;;;;;-12.08;100.00;100540.11;104771;1255;74352;-57
2024/01/08 03:03:12;;;;;;;15.30;10.60;;;;;;;-12.07;100.00;100540.47;104707;1254;65621;-58
2024/01/08 03:05:39;;;;;;;18.20;10.90;;;;;;;-12.18;100.00;100537.83;104818;1254;71125;-58
2024/01/08 03:08:07;;;;;;;16.00;9.50;;;;;;;-12.24;100.00;100540.61;106469;1257;62157;-58
2024/01/08 03:10:34;;;;;;;19.70;12.30;;;;;;;-12.28;100.00;100538.67;104932;1258;60549;-57
2024/01/08 03:13:01;;;;;;;15.20;11.30;;;;;;;-12.33;100.00;100544.42;104627;1254;73909;-59
2024/01/08 03:15:29;;;;;;;17.20;8.30;;;;;;;-12.41;100.00;100540.20;105062;1257;65739;-57
2024/01/08 03:17:56;;;;;;;18.60;10.50;;;;;;;-12.41;100.00;100540.20;105019;1257;72491;-56
2024/01/08 03:20:23;;;;;;;12.40;8.90;;;;;;;-12.43;100.00;100541.52;104558;1254;60833;-59
2024/01/08 03:22:51;;;;;;;15.80;9.40;;;;;;;-12.42;100.00;100544.48;104862;1254;60481;-57
2024/01/08 03:25:19;;;;;;;15.80;10.30;;;;;;;-12.42;100.00;100544.98;104846;1254;73859;-57
2024/01/08 03:27:46;;;;;;;17.50;9.80;;;;;;;-12.40;100.00;100553.21;104780;1253;65774;-59
2024/01/08 03:30:15;;;;;;;17.70;12.00;;;;;;;-12.43;100.00;100548.59;105005;1260;73255;-56
2024/01/08 03:32:42;;;;;;;15.60;11.60;;;;;;;-12.40;100.00;100552.39;104879;1254;61732;-56
2024/01/08 03:35:10;;;;;;;15.00;10.70;;;;;;;-12.37;100.00;100554.63;104925;1254;60454;-56
2024/01/08 03:37:38;;;;;;;16.60;11.20;;;;;;;-12.42;100.00;100549.66;105083;1254;72579;-56
2024/01/08 03:40:06;;;;;;;11.60;9.30;;;;;;;-12.42;100.00;100552.77;104650;1254;67260;-55
2024/01/08 03:42:34;;;;;;;17.50;11.30;;;;;;;-12.38;100.00;100549.52;106067;1253;73285;-57
2024/01/08 03:45:01;;;;;;;13.60;10.10;;;;;;;-12.36;100.00;100552.42;104986;1257;60543;-58
2024/01/08 03:47:29;;;;;;;13.00;10.70;;;;;;;-12.38;100.00;100555.77;105046;1254;61070;-56
2024/01/08 03:49:56;;;;;;;12.80;9.80;;;;;;;-12.36;100.00;100558.67;104972;1254;72548;-56
2024/01/08 03:52:23;;;;;;;13.70;10.00;;;;;;;-12.33;100.00;100560.71;104966;1254;65632;-56
2024/01/08 03:54:51;;;;;;;13.50;9.90;;;;;;;-12.28;100.00;100562.05;105055;1254;72691;-56
2024/01/08 03:57:18;;;;;;;11.80;8.70;;;;;;;-12.25;100.00;100559.61;105067;1254;60552;-57
2024/01/08 03:59:46;;;;;;;12.10;8.40;;;;;;;-12.24;100.00;100561.54;105179;1254;60428;-56
2024/01/08 04:02:13;;;;;;;13.70;7.90;;;;;;;-12.26;100.00;100564.23;104943;1255;72567;-56
2024/01/08 04:04:42;;;;;;;13.40;8.40;;;;;;;-12.30;100.00;100570.77;105140;1257;65570;-59
2024/01/08 04:07:10;;;;;;;12.90;8.20;;;;;;;-12.36;100.00;100564.90;106647;1258;70349;-57
2024/01/08 04:09:39;;;;;;;10.80;7.90;;;;;;;-12.36;100.00;100572.86;106166;1252;63347;-57
2024/01/08 04:12:07;;;;;;;13.20;8.50;;;;;;;-12.30;100.00;100573.69;104953;1254;61213;-58
2024/01/08 04:14:35;;;;;;;14.00;8.50;;;;;;;-12.21;100.00;100576.23;105017;1257;72669;-57
2024/01/08 04:17:05;;;;;;;14.40;8.70;;;;;;;-12.13;100.00;100578.39;105439;1259;67756;-56
2024/01/08 04:19:33;;;;;;;12.70;7.90;;;;;;;-12.10;100.00;100577.88;105968;1257;70800;-56
2024/01/08 04:22:00;;;;;;;11.60;7.80;;;;;;;-12.06;100.00;100578.29;104947;1254;60522;-56
2024/01/08 04:24:28;;;;;;;11.80;8.90;;;;;;;-12.02;100.00;100578.19;104896;1254;60363;-56
2024/01/08 04:26:55;;;;;;;14.40;9.60;;;;;;;-11.97;100.00;100579.11;105346;1257;72597;-55
2024/01/08 04:29:22;;;;;;;14.00;9.50;;;;;;;-11.95;100.00;100584.09;105054;1254;66078;-56
2024/01/08 04:31:50;;;;;;;11.90;8.70;;;;;;;-11.95;100.00;100586.84;104978;1257;71449;-55
2024/01/08 04:34:18;;;;;;;14.20;9.80;;;;;;;-11.95;100.00;100589.77;104941;1254;61914;-56
2024/01/08 04:36:45;;;;;;;14.20;7.80;;;;;;;-11.93;100.00;100589.71;105177;1254;60354;-56
2024/01/08 04:39:13;;;;;;;14.00;8.40;;;;;;;-11.94;100.00;100588.66;105131;1254;73977;-57
2024/01/08 04:41:40;;;;;;;14.40;7.50;;;;;;;-11.97;100.00;100588.08;105077;1257;65543;-57
2024/01/08 04:44:11;;;;;;;14.70;7.70;;;;;;;-11.99;100.00;100590.80;105056;1254;72956;-57
2024/01/08 04:46:41;;;;;;;17.80;9.80;;;;;;;-12.04;100.00;100588.79;105076;1257;61425;-57
2024/01/08 04:49:08;;;;;;;14.80;9.30;;;;;;;-12.09;100.00;100597.53;105191;1255;60418;-56
2024/01/08 04:51:36;;;;;;;16.20;10.70;;;;;;;-12.09;100.00;100596.64;106001;1254;72626;-57
2024/01/08 04:54:04;;;;;;;17.10;11.70;;;;;;;-12.08;100.00;100594.77;105069;1254;65875;-58
2024/01/08 04:56:32;;;;;;;24.60;19.70;;;;;;;-12.04;100.00;100597.27;105037;1254;75240;-56
2024/01/08 04:58:59;;;;;;;11.80;9.00;;;;;;;-12.01;100.00;100605.39;105090;1254;61643;-57
2024/01/08 05:01:27;;;;;;;12.90;7.80;;;;;;;-12.07;100.00;100612.50;104956;1257;60712;-58
2024/01/08 05:03:55;;;;;;;12.90;8.50;;;;;;;-12.15;100.00;100616.02;105397;1254;74077;-57
2024/01/08 05:06:22;;;;;;;19.30;10.60;;;;;;;-12.27;100.00;100620.41;105045;1254;67584;-56
2024/01/08 05:08:49;;;;;;;15.00;11.20;;;;;;;-12.33;100.00;100619.89;105900;1257;70908;-57
2024/01/08 05:11:17;;;;;;;19.10;12.50;;;;;;;-12.30;100.00;100622.63;105027;1255;61839;-57
2024/01/08 05:13:44;;;;;;;25.90;14.90;;;;;;;-12.28;100.00;100621.02;108890;1253;60573;-57
2024/01/08 05:16:11;;;;;;;32.90;20.70;;;;;;;-12.29;100.00;100625.31;109030;1253;72641;-57
2024/01/08 05:18:39;;;;;;;40.70;22.90;;;;;;;-12.29;100.00;100628.27;109039;1253;65501;-58
2024/01/08 05:21:07;;;;;;;58.20;33.00;;;;;;;-12.25;100.00;100627.23;105570;1254;71470;-57
2024/01/08 05:23:35;;;;;;;31.10;18.10;;;;;;;-12.18;100.00;100631.74;105778;1254;61957;-57
2024/01/08 05:26:03;;;;;;;45.50;24.70;;;;;;;-12.17;100.00;100637.04;104846;1254;61762;-56
2024/01/08 05:28:31;;;;;;;44.50;24.00;;;;;;;-12.20;100.00;100643.09;105688;1260;72683;-55
2024/01/08 05:30:58;;;;;;;31.00;14.20;;;;;;;-12.22;100.00;100651.41;104829;1253;65925;-58
2024/01/08 05:33:25;;;;;;;24.50;14.60;;;;;;;-12.22;100.00;100651.93;104788;1253;71431;-55
2024/01/08 05:35:53;;;;;;;34.70;17.10;;;;;;;-12.21;100.00;100656.01;104900;1254;62263;-56
2024/01/08 05:38:21;;;;;;;24.40;16.90;;;;;;;-12.21;100.00;100658.89;109026;1253;60510;-57
2024/01/08 05:40:49;;;;;;;22.90;13.10;;;;;;;-12.17;100.00;100661.95;108972;1253;72743;-57
2024/01/08 05:43:17;;;;;;;10.60;7.70;;;;;;;-12.14;100.00;100665.23;107726;1253;67099;-57
2024/01/08 05:45:45;;;;;;;12.20;8.70;;;;;;;-12.16;100.00;100671.85;104852;1254;70788;-56
2024/01/08 05:48:12;;;;;;;14.70;8.80;;;;;;;-12.19;100.00;100678.42;104893;1254;60517;-56
2024/01/08 05:50:41;;;;;;;12.30;9.60;;;;;;;-12.22;100.00;100681.20;108776;1253;59272;-56
2024/01/08 05:53:08;;;;;;;11.30;7.90;;;;;;;-12.30;100.00;100688.89;104785;1257;74424;-55
2024/01/08 05:55:36;;;;;;;12.90;8.20;;;;;;;-12.33;100.00;100689.04;105372;1254;69381;-55
2024/01/08 05:58:03;;;;;;;11.60;7.60;;;;;;;-12.34;100.00;100693.48;105042;1254;71590;-56
2024/01/08 06:00:30;;;;;;;10.60;6.70;;;;;;;-12.36;100.00;100698.91;104750;1257;62115;-56
2024/01/08 06:02:58;;;;;;;9.00;7.20;;;;;;;-12.46;100.00;100691.73;104881;1254;61125;-56
2024/01/08 06:05:25;;;;;;;11.10;7.00;;;;;;;-12.50;100.00;100698.27;104821;1253;71959;-57
2024/01/08 06:07:53;;;;;;;10.90;6.90;;;;;;;-12.51;100.00;100697.19;104800;1254;66206;-56
2024/01/08 06:10:20;;;;;;;10.30;7.10;;;;;;;-12.53;100.00;100700.37;108304;1256;72704;-57
2024/01/08 06:12:48;;;;;;;9.70;7.00;;;;;;;-12.54;100.00;100703.94;105014;1254;61129;-57
2024/01/08 06:15:16;;;;;;;11.80;7.50;;;;;;;-12.62;100.00;100703.94;106485;1254;60493;-56
2024/01/08 06:17:45;;;;;;;8.90;7.60;;;;;;;-12.70;100.00;100708.14;104782;1257;72998;-57
2024/01/08 06:20:13;;;;;;;9.50;6.30;;;;;;;-12.71;100.00;100711.04;105069;1254;66905;-56
2024/01/08 06:22:41;;;;;;;30.80;18.00;;;;;;;-12.70;100.00;100713.89;106023;1253;73247;-57
2024/01/08 06:25:08;;;;;;;19.00;10.60;;;;;;;-12.71;100.00;100713.99;104903;1257;62086;-58
2024/01/08 06:27:36;;;;;;;30.80;16.40;;;;;;;-12.74;100.00;100712.21;105085;1258;60478;-57
2024/01/08 06:30:04;;;;;;;17.60;11.50;;;;;;;-12.73;100.00;100720.08;104996;1254;74729;-57
2024/01/08 06:32:31;;;;;;;11.60;8.00;;;;;;;-12.70;100.00;100721.31;105107;1256;65669;-57
2024/01/08 06:34:59;;;;;;;16.40;9.70;;;;;;;-12.72;100.00;100728.93;104979;1254;71508;-58
2024/01/08 06:37:26;;;;;;;10.10;7.90;;;;;;;-12.77;100.00;100723.29;104841;1257;62341;-57
2024/01/08 06:39:54;;;;;;;11.30;7.20;;;;;;;-12.80;100.00;100728.84;105015;1254;60637;-57
2024/01/08 06:42:21;;;;;;;12.50;8.30;;;;;;;-12.81;100.00;100727.57;104881;1254;288337;-58
2024/01/08 06:45:56;;;;;;;21.80;10.40;;;;;;;-12.86;100.00;100764.77;102153;1289;602521;-57
2024/01/08 06:48:23;;;;;;;13.60;8.90;;;;;;;-12.88;100.00;100762.56;104056;1267;60442;-58
2024/01/08 06:50:51;;;;;;;11.30;7.40;;;;;;;-12.88;100.00;100766.21;104190;1267;59196;-57
2024/01/08 06:53:19;;;;;;;14.10;9.90;;;;;;;-12.93;100.00;100761.55;104379;1264;72516;-57
2024/01/08 06:55:47;;;;;;;11.20;8.30;;;;;;;-12.96;100.00;100761.90;104177;1264;66871;-56
2024/01/08 06:58:14;;;;;;;12.70;8.70;;;;;;;-12.91;100.00;100759.45;104017;1264;74930;-57
2024/01/08 07:00:41;;;;;;;11.00;8.50;;;;;;;-12.85;100.00;100762.77;104228;1258;216295;-56
2024/01/08 07:03:09;;;;;;;14.00;8.60;;;;;;;-12.89;100.00;100761.63;105426;1256;59276;-56
2024/01/08 07:05:36;;;;;;;12.30;8.60;;;;;;;-12.90;100.00;100763.83;104762;1257;71017;-56
2024/01/08 07:08:07;;;;;;;11.10;7.20;;;;;;;-12.84;100.00;100772.99;106299;1264;67747;-58
2024/01/08 07:10:35;;;;;;;12.00;8.50;;;;;;;-12.80;100.00;100772.58;105302;1262;72553;-58
2024/01/08 07:13:03;;;;;;;14.20;10.00;;;;;;;-12.78;100.00;100773.34;104238;1260;60307;-57
2024/01/08 07:15:41;;;;;;;14.80;10.30;;;;;;;-12.73;100.00;100773.02;104727;1257;59833;-56
2024/01/08 07:18:09;;;;;;;15.00;10.90;;;;;;;-12.71;100.00;100768.94;104615;1261;71898;-56
2024/01/08 07:20:37;;;;;;;11.50;9.00;;;;;;;-12.70;100.00;100768.70;104651;1262;67251;-57
2024/01/08 07:23:08;;;;;;;17.10;12.00;;;;;;;-12.63;100.00;100770.63;104712;1257;72635;-56
2024/01/08 07:25:37;;;;;;;11.00;9.40;;;;;;;-12.54;100.00;100779.84;104682;1261;61893;-57
2024/01/08 07:28:05;;;;;;;11.40;8.50;;;;;;;-12.44;100.00;100783.84;105328;1262;59590;-57
2024/01/08 07:30:33;;;;;;;12.90;6.20;;;;;;;-12.35;100.00;100786.34;104472;1258;73020;-57
2024/01/08 07:33:01;;;;;;;16.20;8.90;;;;;;;-12.31;100.00;100786.88;104913;1257;66903;-56
2024/01/08 07:35:29;;;;;;;10.80;7.80;;;;;;;-12.32;100.00;100786.33;104779;1257;72741;-56
2024/01/08 07:37:56;;;;;;;17.40;11.50;;;;;;;-12.29;100.00;100786.67;104594;1258;60503;-56
2024/01/08 07:40:25;;;;;;;13.00;7.20;;;;;;;-12.23;100.00;100785.59;104868;1257;60026;-57
2024/01/08 07:42:56;;;;;;;10.00;6.30;;;;;;;-12.19;100.00;100785.20;104505;1257;74104;-57
2024/01/08 07:45:25;;;;;;;14.00;8.20;;;;;;;-12.21;100.00;100788.17;105907;1257;65782;-56
2024/01/08 07:47:54;;;;;;;23.70;14.10;;;;;;;-12.25;100.00;100788.14;104585;1257;73267;-56
2024/01/08 07:50:22;;;;;;;18.40;12.30;;;;;;;-12.28;100.00;100787.81;104823;1257;61684;-57
2024/01/08 07:52:51;;;;;;;14.80;7.80;;;;;;;-12.24;100.00;100789.38;105108;1259;60083;-58
2024/01/08 07:55:19;;;;;;;19.30;9.50;;;;;;;-12.20;100.00;100787.71;105445;1257;73084;-57
2024/01/08 07:57:47;;;;;;;17.70;10.10;;;;;;;-12.19;100.00;100791.91;105198;1260;67312;-56
2024/01/08 08:00:15;;;;;;;18.70;11.20;;;;;;;-12.18;100.00;100791.46;104628;1258;72607;-56
2024/01/08 08:02:42;;;;;;;13.40;7.20;;;;;;;-12.13;100.00;100797.28;104541;1256;60355;-56
2024/01/08 08:05:10;;;;;;;13.40;8.40;;;;;;;-12.12;100.00;100798.36;104645;1259;59683;-56
2024/01/08 08:07:39;;;;;;;15.00;7.10;;;;;;;-12.15;100.00;100797.51;104683;1259;73154;-56
2024/01/08 08:10:07;;;;;;;18.10;10.00;;;;;;;-12.14;100.00;100794.59;105602;1254;65856;-55
2024/01/08 08:12:35;;;;;;;15.80;9.00;;;;;;;-12.14;100.00;100800.16;107715;1259;72642;-57
2024/01/08 08:15:02;;;;;;;43.40;23.30;;;;;;;-12.14;100.00;100799.84;104722;1256;60978;-56
2024/01/08 08:17:32;;;;;;;29.80;16.00;;;;;;;-12.10;100.00;100805.75;105660;1254;60564;-56
2024/01/08 08:19:59;;;;;;;9.80;6.60;;;;;;;-12.03;100.00;100806.04;108750;1254;74717;-57
2024/01/08 08:22:27;;;;;;;7.90;5.20;;;;;;;-12.00;100.00;100807.57;106822;1256;65744;-57
2024/01/08 08:24:54;;;;;;;14.50;7.10;;;;;;;-11.94;100.00;100808.45;104822;1256;73137;-56
2024/01/08 08:27:22;;;;;;;12.20;5.90;;;;;;;-11.86;100.00;100810.44;104586;1256;62072;-56
2024/01/08 08:29:50;;;;;;;16.50;7.50;;;;;;;-11.81;100.00;100811.10;108784;1254;60835;-57
2024/01/08 08:32:17;;;;;;;22.30;9.00;;;;;;;-11.73;100.00;100813.92;107608;1257;73904;-56
2024/01/08 08:34:45;;;;;;;20.00;7.80;;;;;;;-11.64;100.00;100820.36;108804;1255;65712;-57
2024/01/08 08:37:14;;;;;;;24.60;11.90;;;;;;;-11.59;100.00;100822.21;108194;1256;72693;-56
2024/01/08 08:39:41;;;;;;;20.70;9.80;;;;;;;-11.56;100.00;100820.08;108339;1257;60449;-57
2024/01/08 08:42:08;;;;;;;20.80;8.90;;;;;;;-11.51;100.00;100816.92;104619;1254;59651;-57
2024/01/08 08:44:37;;;;;;;15.70;7.70;;;;;;;-11.46;100.00;100817.20;104790;1254;73129;-56
2024/01/08 08:47:04;;;;;;;16.20;6.00;;;;;;;-11.33;100.00;100810.31;108848;1254;67379;-57
2024/01/08 08:49:32;;;;;;;22.00;11.60;;;;;;;-11.21;100.00;100809.38;108867;1254;71437;-57
2024/01/08 08:52:00;;;;;;;25.40;10.40;;;;;;;-11.15;100.00;100811.64;108918;1254;60478;-57
2024/01/08 08:54:27;;;;;;;25.10;10.20;;;;;;;-11.09;100.00;100808.88;106770;1254;59788;-57
2024/01/08 08:56:54;;;;;;;11.80;5.80;;;;;;;-11.10;100.00;100806.35;104694;1254;72849;-57
2024/01/08 08:59:22;;;;;;;19.40;8.90;;;;;;;-11.09;100.00;100809.19;104722;1257;66935;-56
2024/01/08 09:01:50;;;;;;;25.80;10.90;;;;;;;-11.04;100.00;100808.10;104793;1259;72659;-56
2024/01/08 09:04:18;;;;;;;22.50;9.70;;;;;;;-10.94;100.00;100807.55;104921;1256;59672;-55
2024/01/08 09:06:49;;;;;;;25.90;12.40;;;;;;;-10.91;100.00;100811.06;105367;1255;60372;-56
2024/01/08 09:09:19;;;;;;;14.30;6.20;;;;;;;-10.93;100.00;100804.89;104876;1259;71038;-59
2024/01/08 09:11:47;;;;;;;23.40;8.40;;;;;;;-10.96;100.00;100809.05;104954;1254;67347;-58
2024/01/08 09:14:14;;;;;;;18.00;8.90;;;;;;;-11.03;100.00;100809.85;104689;1254;72675;-55
2024/01/08 09:16:42;;;;;;;23.90;9.60;;;;;;;-11.02;100.00;100814.23;104573;1259;61736;-57
2024/01/08 09:19:10;;;;;;;22.50;9.70;;;;;;;-10.98;100.00;100812.42;104746;1257;59749;-56
2024/01/08 09:21:38;;;;;;;12.40;5.40;;;;;;;-11.01;100.00;100818.31;104775;1257;75469;-57
2024/01/08 09:24:06;;;;;;;8.20;4.20;;;;;;;-11.06;100.00;100816.79;104705;1259;67008;-57
2024/01/08 09:26:33;;;;;;;14.90;4.80;;;;;;;-11.16;100.00;100815.23;104774;1254;70659;-55
2024/01/08 09:29:01;;;;;;;29.00;12.30;;;;;;;-11.24;100.00;100812.52;105070;1257;60616;-56
2024/01/08 09:31:28;;;;;;;36.50;13.10;;;;;;;-11.28;100.00;100811.27;104657;1254;60064;-57
2024/01/08 09:33:55;;;;;;;40.30;15.90;;;;;;;-11.24;100.00;100815.98;104637;1259;73133;-56
2024/01/08 09:36:23;;;;;;;31.60;11.80;;;;;;;-11.25;100.00;100816.14;104909;1255;67225;-57
2024/01/08 09:38:50;;;;;;;19.10;7.40;;;;;;;-11.30;100.00;100810.64;104643;1256;71421;-57
2024/01/08 09:41:18;;;;;;;22.80;8.80;;;;;;;-11.30;100.00;100815.45;104607;1256;60724;-57
2024/01/08 09:43:52;;;;;;;22.60;10.50;;;;;;;-11.26;100.00;100816.24;104734;1254;59631;-56
2024/01/08 09:46:27;;;;;;;12.40;4.90;;;;;;;-11.23;100.00;100812.41;104882;1254;71861;-56
2024/01/08 09:48:54;;;;;;;12.50;5.90;;;;;;;-11.24;100.00;100812.02;104424;1254;65957;-56
2024/01/08 09:51:23;;;;;;;11.80;5.80;;;;;;;-11.23;100.00;100805.13;105946;1259;70334;-56
2024/01/08 09:53:50;;;;;;;9.20;4.20;;;;;;;-11.20;100.00;100806.36;105576;1257;60505;-58
2024/01/08 09:56:18;;;;;;;10.20;4.10;;;;;;;-11.20;100.00;100805.30;104773;1259;59961;-55
2024/01/08 09:58:45;;;;;;;18.60;8.60;;;;;;;-11.26;100.00;100803.75;105052;1255;71872;-56
2024/01/08 10:01:13;;;;;;;31.10;15.40;;;;;;;-11.28;100.00;100801.90;104802;1255;67175;-56
2024/01/08 10:03:40;;;;;;;20.20;8.50;;;;;;;-11.20;100.00;100803.41;104919;1254;72653;-57
2024/01/08 10:06:09;;;;;;;10.80;6.00;;;;;;;-11.16;100.00;100810.58;104777;1260;60664;-57
2024/01/08 10:08:36;;;;;;;23.30;11.70;;;;;;;-11.21;100.00;100805.23;104864;1254;60121;-56
2024/01/08 10:11:04;;;;;;;24.70;12.10;;;;;;;-11.23;100.00;100799.98;104983;1255;73119;-55
2024/01/08 10:13:32;;;;;;;21.80;10.40;;;;;;;-11.17;100.00;100804.26;105483;1254;67178;-56
2024/01/08 10:15:59;;;;;;;20.50;8.30;;;;;;;-11.16;100.00;100799.46;104772;1258;72353;-56
2024/01/08 10:18:28;;;;;;;21.10;9.10;;;;;;;-11.14;100.00;100802.52;104642;1259;61779;-58
2024/01/08 10:21:22;;;;;;;14.70;7.00;;;;;;;-11.08;100.00;100802.85;104993;1259;59682;-58
2024/01/08 10:23:49;;;;;;;20.60;10.30;;;;;;;-11.05;100.00;100805.94;104533;1254;75328;-56
2024/01/08 10:26:17;;;;;;;24.60;10.80;;;;;;;-11.10;100.00;100810.55;104741;1254;65007;-57
2024/01/08 10:28:46;;;;;;;14.40;4.40;;;;;;;-11.21;100.00;100805.94;104753;1254;73321;-57
2024/01/08 10:31:14;;;;;;;14.60;6.60;;;;;;;-11.30;100.00;100802.65;104950;1254;59818;-56
2024/01/08 10:33:41;;;;;;;17.70;7.50;;;;;;;-11.33;100.00;100803.02;104673;1254;59817;-57
2024/01/08 10:36:10;;;;;;;27.00;10.70;;;;;;;-11.30;100.00;100803.17;104710;1258;73093;-56
2024/01/08 10:38:37;;;;;;;23.20;11.40;;;;;;;-11.24;100.00;100805.92;104932;1256;65700;-56
2024/01/08 10:41:05;;;;;;;20.40;7.60;;;;;;;-11.20;100.00;100806.49;104894;1254;71251;-55
2024/01/08 10:43:33;;;;;;;20.50;8.70;;;;;;;-11.21;100.00;100806.27;104527;1256;61933;-58
2024/01/08 10:46:03;;;;;;;17.50;7.70;;;;;;;-11.20;100.00;100804.06;106406;1257;59938;-56
2024/01/08 10:48:42;;;;;;;12.70;5.60;;;;;;;-11.23;100.00;100805.70;107474;1254;72344;-56
2024/01/08 10:51:11;;;;;;;36.50;16.00;;;;;;;-11.28;100.00;100802.09;104587;1259;66694;-56
2024/01/08 10:53:46;;;;;;;19.90;7.70;;;;;;;-11.27;100.00;100801.80;105086;1262;70442;-57
2024/01/08 10:56:20;;;;;;;22.90;6.90;;;;;;;-11.25;100.00;100803.50;105466;1256;60485;-57